Tiempo atmosférico en la estación meteorológica de Olmedo, Depósito de Agua, Valladolid (786 m.)



Fecha
DESCASC
Temp. máxima en grados centígrados (hora)
DESCASC
Temp. mínima en grados centígrados (hora)
DESCASC
Temp. media en grados centígrados
DESCASC
Racha de viento máxima en m/sg (hora)
DESCASC
Velocidad máxima media en intervalos de 10 minutos(hora)
DESCASC
Precipitaciones diarias en mm
DESCASC
Precipitaciones de 00:00 a 06:00 en mm
DESCASC
Precipitaciones de 06:00 a 12:00 en mm
DESCASC
Precipitaciones de 12:00 a 18:00 en mm
DESCASC
Precipitaciones de 18:00 a 24:00 en mm
DESCASC
23-05-2020 27 (17:20) 12.3 (06:40) 19.7 10.28 (19:30) 7.22 (19:40) 0 0 0 0 0
22-05-2020 31.1 (17:10) 13.3 (07:10) 22.2 8.33 (17:50) 4.72 (16:30) 0 0 0 0 0
21-05-2020 30.3 (18:10) 9.9 (00:00) 20.1 9.44 (18:40) 3.61 (04:10) 0 0 0 0 0
20-05-2020 27.9 (17:00) 9.2 (00:00) 18.5 6.94 (17:40) 4.17 (13:20) 0 0 0 0 0
19-05-2020 25.5 (17:50) 9 (07:10) 17.3 7.22 (15:00) 5 (15:10) 0 0 0 0 0
18-05-2020 24.1 (18:10) 5.5 (00:00) 14.8 9.17 (15:30) 4.17 (15:30) 0 0 0 0 0
17-05-2020 20.8 (17:40) 4.3 (00:00) 12.5 6.94 (18:50) 4.17 (19:30) 0 0 0 0 0
16-05-2020 17.8 (14:50) 6.2 (00:00) 12 10.28 (15:30) 6.39 (19:40) 0 0 0 0 0
15-05-2020 15.8 (16:00) 8.9 (07:00) 12.3 11.11 (19:30) 7.22 (20:30) 0 0 0 0 0
14-05-2020 14 (18:00) 8.6 (00:00) 11.3 6.11 (07:50) 4.44 (01:20) 1.4 0 1 0.4 0
13-05-2020 17.2 (15:00) 8.9 (00:00) 13.1 6.67 (16:10) 4.72 (16:10) 1.4 0.2 0.2 1 0
12-05-2020 16.8 (14:10) 8.6 (05:00) 12.7 10.83 (16:30) 8.33 (16:30) 11.2 0 0 3.4 7.8
11-05-2020 19.5 (16:40) 7.2 (00:00) 13.3 10.28 (10:20) 6.67 (10:40) 3.2 0 0 1.4 1.8
10-05-2020 17.5 (17:50) 7.4 (00:00) 12.5 8.89 (19:30) 5.83 (23:40) 7.4 7.4 0 0 0
09-05-2020 20.2 (17:20) 11.1 (07:50) 15.7 10.28 (20:20) 6.11 (20:20) 0.4 0 0 0 0.4
08-05-2020 25.2 (15:10) 14 (00:00) 19.6 13.61 (03:00) 9.44 (03:00) 0 0 0 0 0
07-05-2020 26.9 (15:20) 9.2 (00:00) 18 11.39 (15:50) 8.33 (16:00) 0 0 0 0 0
06-05-2020 23.7 (17:00) 8 (00:00) 15.9 5 (17:10) 3.89 (02:00) 0 0 0 0 0
05-05-2020 -- (--) -- (--) -- -- (--) -- (--) -- -- -- 0 0
04-05-2020 -- (--) -- (--) -- -- (--) -- (--) -- 0 -- -- --
03-05-2020 27.9 (18:20) 8.1 (07:10) 18 5.28 (01:40) 4.72 (01:40) 0 0 0 0 0
02-05-2020 23.5 (18:20) 9.9 (06:50) 16.7 8.33 (16:10) 5 (16:50) 0 0 0 0 0
01-05-2020 20.3 (18:40) 10.7 (00:00) 15.5 12.78 (16:00) 8.89 (15:50) 0 0 0 0 0
30-04-2020 15.2 (16:20) 8 (05:50) 11.6 13.06 (11:30) 8.61 (13:00) 0 0 0 0 0
29-04-2020 16.8 (14:20) 5.3 (00:00) 11 16.11 (16:50) 10.28 (19:20) 0 0 0 0 0
28-04-2020 14.2 (17:40) 6.9 (08:30) 10.5 10.83 (19:30) 6.39 (14:40) 0 0 0 0 0

Gráficas

Temp. máximas Temp. mínimas Temp. medias Precipitaciones Rachas de viento máximas Velocidades máximas media en intervalos de 10 minutos

Datos horarios

Fecha y hora oficial Temperatura (ºC) Velocidad del viento (km/h) Dirección del viento Racha (km/h) Dirección de racha Precipitación (mm) Presión (hPa) Tendencia (hPa) Humedad (%)
2020-05-27 23:00:00 20.7 7 Sudeste 13 Sudeste 0 -- -- 58
2020-05-27 22:00:00 21.2 14 Sur 18 Sur 0 -- -- 61
2020-05-27 21:00:00 24.7 3 Sudeste 12 Sudeste 0 -- -- 50
2020-05-27 20:00:00 24.1 6 Oeste 12 Oeste 0 -- -- 53
2020-05-27 19:00:00 25.7 6 Oeste 16 Oeste 0 -- -- 56
2020-05-27 18:00:00 25.7 14 Norte 30 Nordeste 2.2 -- -- 52
2020-05-27 17:00:00 27.9 11 Este 31 Sudeste 0 -- -- 39
2020-05-27 16:00:00 28.7 6 Noroeste 20 Sudeste 0 -- -- 39
2020-05-27 15:00:00 27.5 6 Nordeste 20 Este 0 -- -- 43
2020-05-27 14:00:00 26.1 6 Este 18 Este 0 -- -- 44
2020-05-27 13:00:00 24.8 4 Sudoeste 16 Norte 0 -- -- 48
2020-05-27 12:00:00 23.3 4 Norte 15 Nordeste 0 -- -- 53
2020-05-27 11:00:00 21.5 4 Nordeste 9 Nordeste 0 -- -- 59
2020-05-27 10:00:00 19.1 5 Nordeste 12 Nordeste 0 -- -- 70
2020-05-27 09:00:00 16.2 4 Nordeste 9 Norte 0 -- -- 80
2020-05-27 08:00:00 14 3 Norte 8 Nordeste 0 -- -- 86
2020-05-27 07:00:00 13.4 3 Nordeste 8 Nordeste 0 -- -- 86
2020-05-27 06:00:00 13.3 5 Nordeste 10 Norte 0 -- -- 88
2020-05-27 05:00:00 13.9 5 Nordeste 12 Este 0 -- -- 84
2020-05-27 04:00:00 14.2 8 Nordeste 19 Este 0 -- -- 85
2020-05-27 03:00:00 14.7 17 Este 21 Este 0 -- -- 83
2020-05-27 02:00:00 15.9 9 Este 13 Este 0 -- -- 80
2020-05-27 01:00:00 16.8 12 Este 17 Este 0 -- -- 76
2020-05-27 00:00:00 17.6 10 Este 14 Sudeste 0 -- -- 76
2020-05-26 23:00:00 19 10 Sudeste 13 Sudeste 0 -- -- 69
2020-05-26 22:00:00 21.7 6 Nordeste 11 Sudeste 0 -- -- 61
2020-05-26 21:00:00 22.6 12 Sudeste 30 Este 0 -- -- 58
2020-05-26 20:00:00 25.4 4 Sudeste 16 Este 0 -- -- 48
2020-05-26 19:00:00 23.8 6 Este 21 Este 0 -- -- 54
2020-05-26 18:00:00 21.4 12 Este 18 Sudeste 0 -- -- 69
2020-05-26 17:00:00 19.2 13 Sudeste 43 Este 0.2 -- -- 81
2020-05-26 16:00:00 25 20 Nordeste 37 Este 0 -- -- 50
2020-05-26 15:00:00 27.1 6 Norte 23 Nordeste 0 -- -- 46
2020-05-26 14:00:00 25.5 7 Norte 21 Nordeste 0 -- -- 49
2020-05-26 13:00:00 24.3 7 Este 20 Nordeste 0 -- -- 52
2020-05-26 12:00:00 22.6 8 Noroeste 21 Norte 0 -- -- 58
2020-05-26 11:00:00 20.7 7 Norte 14 Nordeste 0 -- -- 63
2020-05-26 10:00:00 17.9 8 Nordeste 17 Nordeste 0 -- -- 71
2020-05-26 09:00:00 14.5 5 Norte 10 Norte 0 -- -- 80
2020-05-26 08:00:00 11.7 5 Norte 11 Norte 0 -- -- 85
2020-05-26 07:00:00 10.6 5 Norte 12 Norte 0 -- -- 87
2020-05-26 06:00:00 12 6 Norte 14 Nordeste 0 -- -- 87
2020-05-26 05:00:00 11.6 9 Norte 14 Norte 0 -- -- 86
2020-05-26 04:00:00 12.3 9 Norte 14 Norte 0 -- -- 84
2020-05-26 03:00:00 13.6 11 Nordeste 21 Norte 0 -- -- 81
2020-05-26 02:00:00 14.3 14 Nordeste 19 Norte 0 -- -- 81
2020-05-26 01:00:00 15.2 9 Norte 20 Nordeste 0 -- -- 79
2020-05-26 00:00:00 16.3 14 Nordeste 23 Nordeste 0 -- -- 77
2020-05-25 23:00:00 18.2 12 Nordeste 23 Nordeste 0 -- -- 71
2020-05-25 22:00:00 20 18 Nordeste 28 Nordeste 0 -- -- 64
2020-05-25 21:00:00 22.6 21 Nordeste 39 Nordeste 0 -- -- 49
2020-05-25 20:00:00 25.6 26 Nordeste 36 Nordeste 0 -- -- 42
2020-05-25 19:00:00 27.2 21 Nordeste 35 Norte 0 -- -- 33
2020-05-25 18:00:00 27.6 17 Norte 32 Norte 0 -- -- 35
2020-05-25 17:00:00 28.1 13 Norte 32 Norte 0 -- -- 37
2020-05-25 16:00:00 28.1 13 Norte 28 Nordeste 0 -- -- 37
2020-05-25 15:00:00 27.7 14 Nordeste 26 Nordeste 0 -- -- 39
2020-05-25 14:00:00 26 14 Norte 29 Nordeste 0 -- -- 47
2020-05-25 13:00:00 23.7 12 Norte 21 Norte 0 -- -- 54
2020-05-25 12:00:00 21.7 8 Norte 16 Norte 0 -- -- 58
2020-05-25 11:00:00 18.3 8 Norte 15 Norte 0 -- -- 67
2020-05-25 10:00:00 16 7 Norte 12 Norte 0 -- -- 75
2020-05-25 09:00:00 13.2 8 Norte 14 Norte 0 -- -- 83
2020-05-25 08:00:00 11.2 8 Norte 12 Noroeste 0 -- -- 88
2020-05-25 07:00:00 11.5 3 Noroeste 9 Noroeste 0 -- -- 88
2020-05-25 06:00:00 12 3 Noroeste 11 Noroeste 0 -- -- 86
2020-05-25 05:00:00 12.9 5 Norte 13 Sudeste 0 -- -- 81
2020-05-25 04:00:00 13.5 6 Nordeste 12 Noroeste 0 -- -- 80
2020-05-25 03:00:00 15 7 Norte 12 Norte 0 -- -- 73
2020-05-25 02:00:00 16.1 8 Nordeste 17 Este 0 -- -- 67
2020-05-25 01:00:00 17 11 Este 16 Este 0 -- -- 63
2020-05-25 00:00:00 19 8 Este 22 Nordeste 0 -- -- 58
2020-05-24 23:00:00 20.7 12 Nordeste 21 Nordeste 0 -- -- 55
2020-05-24 22:00:00 22.9 9 Nordeste 15 Nordeste 0 -- -- 50
2020-05-24 21:00:00 24.9 14 Nordeste 21 Norte 0 -- -- 44
2020-05-24 20:00:00 26.4 13 Norte 24 Norte 0 -- -- 39
2020-05-24 19:00:00 27.6 11 Noroeste 21 Noroeste 0 -- -- 38
2020-05-24 18:00:00 28.2 9 Norte 20 Noroeste 0 -- -- 39
2020-05-24 17:00:00 27.9 5 Nordeste 20 Norte 0 -- -- 41
2020-05-24 16:00:00 26.8 9 Norte 21 Norte 0 -- -- 42
2020-05-24 15:00:00 26.5 8 Norte 23 Nordeste 0 -- -- 43
2020-05-24 14:00:00 24.6 12 Norte 22 Norte 0 -- -- 47
2020-05-24 13:00:00 22.8 8 Nordeste 19 Norte 0 -- -- 49
2020-05-24 12:00:00 20 8 Norte 15 Nordeste 0 -- -- 57
2020-05-24 11:00:00 17.1 8 Norte 15 Norte 0 -- -- 64
2020-05-24 10:00:00 14.2 6 Nordeste 13 Norte 0 -- -- 72
2020-05-24 09:00:00 11.1 10 Norte 14 Norte 0 -- -- 82
2020-05-24 08:00:00 8.8 4 Noroeste 13 Norte 0 -- -- 88
2020-05-24 07:00:00 8.7 4 Norte 6 Norte 0 -- -- 88
2020-05-24 06:00:00 10.1 3 Nordeste 6 Este 0 -- -- 85
2020-05-24 05:00:00 10.4 2 Norte 12 Nordeste 0 -- -- 82
2020-05-24 04:00:00 10.8 5 Este 12 Nordeste 0 -- -- 82
2020-05-24 03:00:00 11.6 9 Nordeste 18 Nordeste 0 -- -- 79
2020-05-24 02:00:00 12.6 10 Nordeste 21 Nordeste 0 -- -- 76
2020-05-24 01:00:00 13.4 12 Nordeste 20 Nordeste 0 -- -- 73
2020-05-24 00:00:00 14.4 13 Nordeste 24 Nordeste 0 -- -- 69
2020-05-23 23:00:00 16.1 15 Nordeste 28 Nordeste 0 -- -- 68
2020-05-23 22:00:00 18 16 Nordeste 30 Nordeste 0 -- -- 65
2020-05-23 21:00:00 20.3 20 Nordeste 34 Nordeste 0 -- -- 59
2020-05-23 20:00:00 22.6 23 Nordeste 37 Nordeste 0 -- -- 54
2020-05-23 19:00:00 24.7 20 Nordeste 31 Nordeste 0 -- -- 52
2020-05-23 18:00:00 26.9 11 Noroeste 22 Norte 0 -- -- 47
2020-05-23 17:00:00 26.9 9 Noroeste 19 Norte 0 -- -- 44
2020-05-23 16:00:00 26.2 5 Nordeste 15 Noroeste 0 -- -- 45
2020-05-23 15:00:00 24.6 7 Noroeste 19 Norte 0 -- -- 50
2020-05-23 14:00:00 23.6 7 Norte 19 Norte 0 -- -- 55
2020-05-23 13:00:00 21.9 12 Norte 22 Noroeste 0 -- -- 63
2020-05-23 12:00:00 21.1 10 Norte 22 Nordeste 0 -- -- 65
2020-05-23 11:00:00 20.4 6 Noroeste 12 Noroeste 0 -- -- 68
2020-05-23 10:00:00 18.1 3 Noroeste 13 Noroeste 0 -- -- 76
2020-05-23 09:00:00 16.1 8 Oeste 17 Sudoeste 0 -- -- 82
2020-05-23 08:00:00 14.1 12 Sudoeste 19 Sudoeste 0 -- -- 86
2020-05-23 07:00:00 12.4 10 Sudoeste 19 Sudoeste 0 -- -- 88
2020-05-23 06:00:00 13.2 13 Sudoeste 18 Sudoeste 0 -- -- 82
2020-05-23 05:00:00 13.8 12 Sudoeste 17 Sudoeste 0 -- -- 77
2020-05-23 04:00:00 14.4 12 Sudoeste 15 Sudoeste 0 -- -- 73
2020-05-23 03:00:00 15.3 12 Sudoeste 15 Sudoeste 0 -- -- 70
2020-05-23 02:00:00 16.4 10 Sudoeste 15 Sudoeste 0 -- -- 66
2020-05-23 01:00:00 17 12 Sudoeste 13 Sudoeste 0 -- -- 62
2020-05-23 00:00:00 18.1 11 Sudoeste 14 Sudoeste 0 -- -- 56
2020-05-22 23:00:00 20.8 8 Sudoeste 11 Oeste 0 -- -- 47
2020-05-22 22:00:00 23.5 5 Oeste 14 Noroeste 0 -- -- 39
2020-05-22 21:00:00 27.1 7 Oeste 18 Oeste 0 -- -- 30
2020-05-22 20:00:00 29 12 Noroeste 24 Oeste 0 -- -- 27
2020-05-22 19:00:00 30.1 9 Oeste 24 Oeste 0 -- -- 26
2020-05-22 18:00:00 30.4 11 Oeste 30 Noroeste 0 -- -- 25
2020-05-22 17:00:00 30.8 10 Sudoeste 26 Sudoeste 0 -- -- 26
2020-05-22 16:00:00 29.9 8 Sudoeste 21 Oeste 0 -- -- 30
2020-05-22 15:00:00 28.5 9 Oeste 23 Oeste 0 -- -- 34
2020-05-22 14:00:00 27.8 4 Noroeste 15 Oeste 0 -- -- 37
2020-05-22 13:00:00 26.6 7 Sur 13 Sur 0 -- -- 40
2020-05-22 12:00:00 24.8 4 Sur 12 Sudoeste 0 -- -- 44
2020-05-22 11:00:00 22.4 5 Sur 10 Sudoeste 0 -- -- 62
2020-05-22 10:00:00 19.4 6 Sudoeste 16 Sudoeste 0 -- -- 73
2020-05-22 09:00:00 16.3 11 Sudoeste 17 Sudoeste 0 -- -- 77
2020-05-22 08:00:00 13.7 9 Sur 16 Sur 0 -- -- 80
2020-05-22 07:00:00 13.5 13 Sur 15 Sur 0 -- -- 78
2020-05-22 06:00:00 13.8 10 Sudoeste 15 Sur 0 -- -- 76
2020-05-22 05:00:00 14.8 8 Sur 10 Sudoeste 0 -- -- 72
2020-05-22 04:00:00 15.3 6 Sur 14 Sudoeste 0 -- -- 70
2020-05-22 03:00:00 16 12 Sudoeste 15 Sudoeste 0 -- -- 66
2020-05-22 02:00:00 16.5 14 Sudoeste 15 Sudoeste 0 -- -- 64
2020-05-22 01:00:00 17.8 11 Sudoeste 14 Sudoeste 0 -- -- 61
2020-05-22 00:00:00 19.1 11 Sudoeste 15 Sudoeste 0 -- -- 62
2020-05-21 23:00:00 20.8 11 Sudoeste 13 Sudoeste 0 -- -- 54
2020-05-21 22:00:00 24 6 Oeste 12 Oeste 0 -- -- 42
2020-05-21 21:00:00 26.3 6 Oeste 17 Oeste 0 -- -- 35
2020-05-21 20:00:00 29.5 8 Sudoeste 15 Sudoeste 0 -- -- 29
2020-05-21 19:00:00 29.7 8 Oeste 34 Sudoeste 0 -- -- 30
2020-05-21 18:00:00 30.2 5 Norte 17 Noroeste 0 -- -- 29
2020-05-21 17:00:00 29.5 5 Sudeste 18 Este 0 -- -- 29
2020-05-21 16:00:00 29.2 8 Este 17 Oeste 0 -- -- 29
2020-05-21 15:00:00 28 9 Oeste 19 Noroeste 0 -- -- 31
2020-05-21 14:00:00 27.5 7 Noroeste 13 Noroeste 0 -- -- 33
2020-05-21 13:00:00 26.4 4 Noroeste 9 Noroeste 0 -- -- 34
2020-05-21 12:00:00 24.2 3 Norte 8 Noroeste 0 -- -- 45
2020-05-21 11:00:00 21.1 5 Sur 11 Sudeste 0 -- -- 51
2020-05-21 10:00:00 17.9 7 Sur 12 Sudeste 0 -- -- 65
2020-05-21 09:00:00 14.6 9 Sur 13 Sur 0 -- -- 70
2020-05-21 08:00:00 11.4 9 Sur 13 Sur 0 -- -- 74
2020-05-21 07:00:00 9.9 7 Sur 11 Sur 0 -- -- 76
2020-05-21 06:00:00 10.9 6 Sudoeste 8 Sur 0 -- -- 68
2020-05-21 05:00:00 11.5 8 Sudoeste 15 Sur 0 -- -- 67
2020-05-21 04:00:00 12.1 12 Sur 13 Sur 0 -- -- 65
2020-05-21 03:00:00 13.5 4 Sudoeste 12 Sudeste 0 -- -- 58
2020-05-21 02:00:00 15 8 Sudeste 14 Este 0 -- -- 56
2020-05-21 01:00:00 18.6 11 Sudeste 13 Sudeste 0 -- -- 41
2020-05-21 00:00:00 19.3 8 Sudeste 16 Este 0 -- -- 40
2020-05-20 23:00:00 21 8 Este 9 Este 0 -- -- 34
2020-05-20 22:00:00 22.8 2 Norte 10 Norte 0 -- -- 36
2020-05-20 21:00:00 26.2 5 Norte 16 Nordeste 0 -- -- 28
2020-05-20 20:00:00 27.1 9 Nordeste 20 Norte 0 -- -- 23
2020-05-20 19:00:00 27.6 11 Nordeste 23 Norte 0 -- -- 22
2020-05-20 18:00:00 27.7 13 Norte 25 Norte 0 -- -- 19
2020-05-20 17:00:00 27.9 11 Nordeste 22 Norte 0 -- -- 19
2020-05-20 16:00:00 27.6 10 Norte 22 Nordeste 0 -- -- 19
2020-05-20 15:00:00 26.4 9 Norte 23 Noroeste 0 -- -- 22
2020-05-20 14:00:00 25.1 13 Norte 24 Norte 0 -- -- 31
2020-05-20 13:00:00 23.1 9 Norte 18 Norte 0 -- -- 38
2020-05-20 12:00:00 20.7 3 Oeste 8 Noroeste 0 -- -- 47
2020-05-20 11:00:00 18.1 4 Sudoeste 7 Sudoeste 0 -- -- 56
2020-05-20 10:00:00 15.4 2 Sudoeste 8 Este 0 -- -- 65
2020-05-20 09:00:00 13.5 5 Este 7 Este 0 -- -- 72
2020-05-20 08:00:00 10.9 4 Este 8 Sudeste 0 -- -- 80
2020-05-20 07:00:00 9.7 4 Este 8 Sur 0 -- -- 85
2020-05-20 06:00:00 9.6 8 Sur 12 Sur 0 -- -- 81
2020-05-20 05:00:00 11.4 0 Calma 4 Noroeste 0 -- -- 74
2020-05-20 04:00:00 13 0 Calma 5 Este 0 -- -- 71
2020-05-20 03:00:00 13.9 6 Este 7 Este 0 -- -- 69
2020-05-20 02:00:00 14.4 4 Nordeste 5 Este 0 -- -- 67
2020-05-20 01:00:00 15.6 7 Este 12 Este 0 -- -- 64
2020-05-20 00:00:00 17 10 Este 15 Este 0 -- -- 60
2020-05-19 23:00:00 18.9 9 Este 13 Nordeste 0 -- -- 51
2020-05-19 22:00:00 20.8 9 Nordeste 17 Norte 0 -- -- 48
2020-05-19 21:00:00 23.8 6 Norte 15 Nordeste 0 -- -- 43
2020-05-19 20:00:00 24.8 12 Nordeste 21 Norte 0 -- -- 37
2020-05-19 19:00:00 25.2 14 Norte 24 Norte 0 -- -- 37
2020-05-19 18:00:00 25.5 12 Norte 23 Norte 0 -- -- 38
2020-05-19 17:00:00 25 9 Norte 25 Nordeste 0 -- -- 39
2020-05-19 16:00:00 24 9 Nordeste 26 Nordeste 0 -- -- 45
2020-05-19 15:00:00 23.2 15 Nordeste 26 Nordeste 0 -- -- 37
2020-05-19 14:00:00 22.4 12 Norte 19 Norte 0 -- -- 45
2020-05-19 13:00:00 20.4 7 Noroeste 16 Norte 0 -- -- 48
2020-05-19 12:00:00 18.3 6 Noroeste 13 Norte 0 -- -- 54
2020-05-19 11:00:00 16.3 5 Norte 11 Norte 0 -- -- 57
2020-05-19 10:00:00 14.8 4 Este 8 Nordeste 0 -- -- 57
2020-05-19 09:00:00 12.9 4 Este 8 Este 0 -- -- 61
2020-05-19 08:00:00 10.2 3 Nordeste 5 Este 0 -- -- 71
2020-05-19 07:00:00 9.1 2 Norte 4 Norte 0 -- -- 73
2020-05-19 06:00:00 9.9 0 Calma 10 Norte 0 -- -- 71
2020-05-19 05:00:00 10.8 2 Noroeste 10 Nordeste 0 -- -- 67
2020-05-19 04:00:00 12.3 6 Norte 9 Norte 0 -- -- 55
2020-05-19 03:00:00 12.8 8 Este 13 Este 0 -- -- 62
2020-05-19 02:00:00 13.2 8 Este 18 Este 0 -- -- 66
2020-05-19 01:00:00 14.5 10 Este 21 Este 0 -- -- 62
2020-05-19 00:00:00 16 13 Este 17 Este 0 -- -- 58
2020-05-18 23:00:00 18 10 Nordeste 15 Nordeste 0 -- -- 49
2020-05-18 22:00:00 19.1 6 Norte 13 Norte 0 -- -- 47
2020-05-18 21:00:00 22 9 Norte 17 Norte 0 -- -- 39
2020-05-18 20:00:00 23.2 10 Norte 24 Norte 0 -- -- 34
2020-05-18 19:00:00 23.8 13 Norte 21 Nordeste 0 -- -- 34
2020-05-18 18:00:00 23.9 8 Norte 22 Norte 0 -- -- 31
2020-05-18 17:00:00 23.5 13 Norte 24 Norte 0 -- -- 33
2020-05-18 16:00:00 23.1 14 Norte 33 Noroeste 0 -- -- 32
2020-05-18 15:00:00 22.3 13 Norte 27 Norte 0 -- -- 32
2020-05-18 14:00:00 21.2 10 Noroeste 23 Norte 0 -- -- 31
2020-05-18 13:00:00 19.8 13 Nordeste 21 Nordeste 0 -- -- 37
2020-05-18 12:00:00 17.5 6 Norte 13 Norte 0 -- -- 50
2020-05-18 11:00:00 15.3 4 Norte 12 Nordeste 0 -- -- 55
2020-05-18 10:00:00 13.1 5 Este 12 Sudeste 0 -- -- 62
2020-05-18 09:00:00 10.2 0 Calma 6 Sudoeste 0 -- -- 75
2020-05-18 08:00:00 7 4 Sudoeste 8 Sudoeste 0 -- -- 86
2020-05-18 07:00:00 5.6 6 Sudoeste 7 Sur 0 -- -- 86
2020-05-18 06:00:00 7.1 3 Oeste 8 Norte 0 -- -- 81
2020-05-18 05:00:00 8.6 3 Oeste 7 Oeste 0 -- -- 77
2020-05-18 04:00:00 8.4 5 Oeste 9 Sudoeste 0 -- -- 76
2020-05-18 03:00:00 10.4 3 Noroeste 10 Este 0 -- -- 69
2020-05-18 02:00:00 11.4 10 Este 12 Sudeste 0 -- -- 67
2020-05-18 01:00:00 12.8 7 Este 8 Este 0 -- -- 58
2020-05-18 00:00:00 13.4 8 Nordeste -- -- 0 -- -- 53
2020-05-17 23:00:00 15.2 3 Este 9 Nordeste 0 -- -- 47
2020-05-17 22:00:00 16.6 8 Nordeste 12 Norte 0 -- -- 42
2020-05-17 21:00:00 18.7 9 Norte 21 Noroeste 0 -- -- 41
2020-05-17 20:00:00 19.7 13 Norte 25 Norte 0 -- -- 39
2020-05-17 19:00:00 20.4 13 Norte 25 Noroeste 0 -- -- 38
2020-05-17 18:00:00 20.4 12 Norte 24 Norte 0 -- -- 41
2020-05-17 17:00:00 20.5 6 Noroeste 24 Norte 0 -- -- 43
2020-05-17 16:00:00 20 9 Norte 23 Norte 0 -- -- 43
2020-05-17 15:00:00 18.6 9 Noroeste 21 Norte 0 -- -- 49
2020-05-17 14:00:00 16.9 9 Noroeste 21 Nordeste 0 -- -- 52
2020-05-17 13:00:00 15.4 5 Noroeste 15 Nordeste 0 -- -- 61
2020-05-17 12:00:00 13.9 3 Sudeste 12 Este 0 -- -- 61
2020-05-17 11:00:00 12.2 5 Nordeste 14 Este 0 -- -- 66
2020-05-17 10:00:00 9.9 6 Nordeste 13 Este 0 -- -- 72
2020-05-17 09:00:00 7.6 2 Nordeste 6 Norte 0 -- -- 81
2020-05-17 08:00:00 5.3 0 Calma 4 Norte 0 -- -- 89
2020-05-17 07:00:00 4.3 3 Noroeste 6 Norte 0 -- -- 90
2020-05-17 06:00:00 4.7 2 Noroeste 6 Norte 0 -- -- 88
2020-05-17 05:00:00 5.2 4 Norte 10 Norte 0 -- -- 86
2020-05-17 04:00:00 6.6 6 Norte 15 Nordeste 0 -- -- 82
2020-05-17 03:00:00 7.4 6 Nordeste 15 Nordeste 0 -- -- 80
2020-05-17 02:00:00 8.3 11 Nordeste 19 Nordeste 0 -- -- 77
2020-05-17 01:00:00 9.1 12 Nordeste 22 Nordeste 0 -- -- 75
2020-05-17 00:00:00 10 9 Nordeste 29 Nordeste 0 -- -- 72
2020-05-16 23:00:00 11 13 Nordeste 29 Nordeste 0 -- -- 69
2020-05-16 22:00:00 12.5 13 Nordeste 30 Nordeste 0 -- -- 65
2020-05-16 21:00:00 14.8 18 Nordeste 32 Nordeste 0 -- -- 59
2020-05-16 20:00:00 16 23 Nordeste 47 Nordeste 0 -- -- 57
2020-05-16 19:00:00 16.9 20 Norte 30 Norte 0 -- -- 57
2020-05-16 18:00:00 16.4 15 Nordeste 30 Norte 0 -- -- 59
2020-05-16 17:00:00 17.8 22 Nordeste 31 Nordeste 0 -- -- 54
2020-05-16 16:00:00 16.7 16 Nordeste 37 Norte 0 -- -- 58
2020-05-16 15:00:00 17.4 17 Norte 30 Nordeste 0 -- -- 54
2020-05-16 14:00:00 16.9 17 Nordeste 28 Nordeste 0 -- -- 55
2020-05-16 13:00:00 16.1 16 Nordeste 28 Nordeste 0 -- -- 58
2020-05-16 12:00:00 15.6 14 Nordeste 27 Este 0 -- -- 61
2020-05-16 11:00:00 13.5 14 Nordeste 22 Nordeste 0 -- -- 66
2020-05-16 10:00:00 10.5 14 Nordeste 22 Nordeste 0 -- -- 75
2020-05-16 09:00:00 8.6 10 Nordeste 15 Nordeste 0 -- -- 83
2020-05-16 08:00:00 7.2 4 Nordeste 9 Norte 0 -- -- 88
2020-05-16 07:00:00 6.3 5 Norte 12 Nordeste 0 -- -- 89
2020-05-16 06:00:00 6.5 7 Nordeste 23 Nordeste 0 -- -- 86
2020-05-16 05:00:00 6.6 13 Nordeste 21 Nordeste 0 -- -- 86
2020-05-16 04:00:00 7.2 12 Nordeste 22 Nordeste 0 -- -- 84
2020-05-16 03:00:00 7.6 12 Nordeste 19 Nordeste 0 -- -- 84
2020-05-16 02:00:00 8 11 Nordeste 21 Nordeste 0 -- -- 84
2020-05-16 01:00:00 8.6 14 Nordeste 26 Nordeste 0 -- -- 81
2020-05-16 00:00:00 9.4 17 Nordeste 35 Nordeste 0 -- -- 79
2020-05-15 23:00:00 10.1 22 Nordeste 36 Nordeste 0 -- -- 77
2020-05-15 22:00:00 10.9 21 Nordeste 33 Nordeste 0 -- -- 75
2020-05-15 21:00:00 12 17 Nordeste 37 Nordeste 0 -- -- 73
2020-05-15 20:00:00 13.4 23 Nordeste 40 Nordeste 0 -- -- 67
2020-05-15 19:00:00 14.5 24 Nordeste 37 Nordeste 0 -- -- 63
2020-05-15 18:00:00 15 22 Nordeste 36 Nordeste 0 -- -- 64
2020-05-15 17:00:00 15.5 23 Nordeste 34 Nordeste 0 -- -- 61
2020-05-15 16:00:00 15.8 18 Nordeste 33 Norte 0 -- -- 62
2020-05-15 15:00:00 14.4 17 Nordeste 31 Nordeste 0 -- -- 65
2020-05-15 14:00:00 13.5 17 Nordeste 28 Nordeste 0 -- -- 70
2020-05-15 13:00:00 13.2 18 Norte 28 Norte 0 -- -- 70
2020-05-15 12:00:00 12.9 18 Nordeste 28 Nordeste 0 -- -- 69
2020-05-15 11:00:00 12.3 18 Nordeste 29 Nordeste 0 -- -- 71
2020-05-15 10:00:00 11.5 12 Nordeste 22 Nordeste 0 -- -- 77
2020-05-15 09:00:00 9.3 14 Nordeste 21 Nordeste 0 -- -- 84
2020-05-15 08:00:00 8.9 12 Nordeste 19 Nordeste 0 -- -- 85
2020-05-15 07:00:00 8.9 9 Nordeste 15 Nordeste 0 -- -- 87
2020-05-15 06:00:00 9 6 Nordeste 9 Nordeste 0 -- -- 88
2020-05-15 05:00:00 9.4 5 Nordeste 13 Nordeste 0 -- -- 87
2020-05-15 04:00:00 9.9 9 Nordeste 15 Nordeste 0 -- -- 86
2020-05-15 03:00:00 10.3 12 Nordeste 18 Nordeste 0 -- -- 87
2020-05-15 02:00:00 10.1 8 Nordeste 11 Este 0 -- -- 90
2020-05-15 01:00:00 10.9 7 Nordeste 11 Este 0 -- -- 85
2020-05-15 00:00:00 11.3 6 Este 9 Este 0 -- -- 84
2020-05-14 23:00:00 11.7 4 Este 6 Este 0 -- -- 82
2020-05-14 22:00:00 12 5 Este 6 Este 0 -- -- 79
2020-05-14 21:00:00 12.5 3 Este 9 Este 0 -- -- 74
2020-05-14 20:00:00 13 6 Este 12 Nordeste 0 -- -- 71
2020-05-14 19:00:00 13.5 4 Este 12 Este 0 -- -- 71
2020-05-14 18:00:00 14 5 Este 8 Este 0 -- -- 69
2020-05-14 17:00:00 12.4 2 Oeste 11 Oeste 0 -- -- 74
2020-05-14 16:00:00 11.5 4 Sudoeste 8 Sudoeste 0 -- -- 75
2020-05-14 15:00:00 10.7 3 Oeste 14 Sudoeste 0 -- -- 82
2020-05-14 14:00:00 10 10 Sudoeste 17 Sudoeste 0 -- -- 82
2020-05-14 13:00:00 9.4 9 Sudoeste 14 Sudoeste 0.4 -- -- 86
2020-05-14 12:00:00 8.9 6 Oeste 21 Sudoeste 0.6 -- -- 90
2020-05-14 11:00:00 8.7 11 Sudoeste 22 Sudoeste 0.2 -- -- 95
2020-05-14 10:00:00 9 11 Oeste 19 Sudoeste 0.2 -- -- 92
2020-05-14 09:00:00 9.4 9 Oeste 18 Oeste 0 -- -- 94
2020-05-14 08:00:00 9.2 13 Oeste 22 Oeste 0 -- -- 94
2020-05-14 07:00:00 9.1 14 Sur 21 Sur 0 -- -- 95
2020-05-14 06:00:00 8.8 11 Este 18 Este 0 -- -- 96
2020-05-14 05:00:00 9.1 12 Este 15 Este 0 -- -- 96
2020-05-14 04:00:00 9.2 9 Este 18 Este 0 -- -- 96
2020-05-14 03:00:00 9.5 6 Sur 15 Sudeste 0 -- -- 95
2020-05-14 02:00:00 9.9 12 Sudeste 19 Sudeste 0 -- -- 95
2020-05-14 01:00:00 10 12 Este 15 Este 0 -- -- 95
2020-05-14 00:00:00 10.7 12 Este 17 Este 0 -- -- 95
2020-05-13 23:00:00 11.2 13 Este 15 Este 0 -- -- 94
2020-05-13 22:00:00 11.9 5 Este 9 Este 0 -- -- 90
2020-05-13 21:00:00 12.7 3 Nordeste 10 Nordeste 0 -- -- 85
2020-05-13 20:00:00 12.9 4 Norte 12 Noroeste 0 -- -- 88
2020-05-13 19:00:00 12.8 5 Oeste 13 Norte 0 -- -- 86
2020-05-13 18:00:00 12.7 6 Noroeste 21 Sudoeste 0.6 -- -- 88
2020-05-13 17:00:00 13.8 10 Oeste 24 Sudoeste 0.4 -- -- 81
2020-05-13 16:00:00 16.3 11 Sur 20 Sudoeste 0 -- -- 68
2020-05-13 15:00:00 17.2 5 Nordeste 19 Este 0 -- -- 63
2020-05-13 14:00:00 15.1 2 Noroeste 10 Noroeste 0 -- -- 71
2020-05-13 13:00:00 13.6 4 Oeste 12 Oeste 0 -- -- 82
2020-05-13 12:00:00 12 4 Oeste 10 Oeste 0 -- -- 84
2020-05-13 11:00:00 12.7 5 Oeste 15 Oeste 0 -- -- 85
2020-05-13 10:00:00 11.2 6 Oeste 14 Oeste 0 -- -- 92
2020-05-13 09:00:00 9.8 3 Sur 8 Sudoeste 0.2 -- -- 96
2020-05-13 08:00:00 9.2 4 Sudoeste 11 Sudoeste 0 -- -- 97
2020-05-13 07:00:00 9 8 Sudoeste 11 Sudoeste 0 -- -- 98
2020-05-13 06:00:00 8.9 7 Sudoeste 13 Sudoeste 0 -- -- 98
2020-05-13 05:00:00 9.1 9 Sudoeste 12 Sudoeste 0 -- -- 97
2020-05-13 04:00:00 9.3 5 Oeste 10 Oeste 0 -- -- 97
2020-05-13 03:00:00 9.3 7 Sudoeste 10 Sudoeste 0 -- -- 97
2020-05-13 02:00:00 9.5 4 Sudoeste 8 Sudoeste 0 -- -- 96
2020-05-13 01:00:00 9.6 0 Calma 5 Noroeste 0.2 -- -- 96
2020-05-13 00:00:00 9.9 3 Noroeste 8 Oeste 0.2 -- -- 96
2020-05-12 23:00:00 10.1 5 Sudoeste 9 Sudoeste 0.6 -- -- 94
2020-05-12 22:00:00 10.5 2 Sudeste 5 Sudeste 0.8 -- -- 94
2020-05-12 21:00:00 10.5 3 Sur 10 Sudeste 0.4 -- -- 92
2020-05-12 20:00:00 10.6 10 Sudeste 19 Sur 1.2 -- -- 92
2020-05-12 19:00:00 10.9 13 Sur 24 Sur 4.6 -- -- 92
2020-05-12 18:00:00 11.1 19 Sudeste 27 Sudeste 2.4 -- -- 92
2020-05-12 17:00:00 11.5 14 Sudoeste 39 Sur 0.6 -- -- 87
2020-05-12 16:00:00 16.4 8 Norte 17 Norte 0 -- -- 64
2020-05-12 15:00:00 14.8 6 Sudeste 20 Sudeste 0.4 -- -- 79
2020-05-12 14:00:00 16.6 5 Este 13 Nordeste 0 -- -- 68
2020-05-12 13:00:00 15.2 3 Sudeste 8 Este 0 -- -- 76
2020-05-12 12:00:00 13.4 3 Nordeste 8 Este 0 -- -- 85
2020-05-12 11:00:00 11.7 3 Sudeste 11 Este 0 -- -- 90
2020-05-12 10:00:00 10.7 9 Este 12 Este 0 -- -- 93
2020-05-12 09:00:00 10.2 4 Sudoeste 6 Sur 0 -- -- 94
2020-05-12 08:00:00 9.7 2 Sudeste 9 Sur 0 -- -- 95
2020-05-12 07:00:00 9.3 7 Sur 21 Sur 0 -- -- 95
2020-05-12 06:00:00 9.2 7 Sur 12 Sur 0 -- -- 94
2020-05-12 05:00:00 8.6 7 Sur 10 Sur 0 -- -- 92
2020-05-12 04:00:00 9.5 8 Sudoeste 15 Sudoeste 0 -- -- 93
2020-05-12 03:00:00 9.9 5 Sudoeste 13 Sudoeste 0 -- -- 92
2020-05-12 02:00:00 10.2 10 Sudoeste 16 Sudoeste 0 -- -- 91
2020-05-12 01:00:00 10.5 12 Sudoeste 19 Sudoeste 0 -- -- 89
2020-05-12 00:00:00 10.9 13 Sudoeste 18 Sur 0 -- -- 86
2020-05-11 23:00:00 11 12 Sur 15 Sur 0 -- -- 86
2020-05-11 22:00:00 12.7 5 Sudoeste 15 Oeste 0 -- -- 82
2020-05-11 21:00:00 14.5 10 Oeste 28 Oeste 0 -- -- 70
2020-05-11 20:00:00 17 11 Oeste 22 Oeste 0 -- -- 61
2020-05-11 19:00:00 15.8 15 Sudeste 25 Sur 1.8 -- -- 75
2020-05-11 18:00:00 14.7 22 Sur 34 Sur 1.4 -- -- 75
2020-05-11 17:00:00 18.6 14 Sudoeste 32 Sudoeste 0 -- -- 54
2020-05-11 16:00:00 17.8 16 Oeste 30 Oeste 0 -- -- 51
2020-05-11 15:00:00 18.3 15 Oeste 28 Sudoeste 0 -- -- 49
2020-05-11 14:00:00 17.4 15 Oeste 31 Sudoeste 0 -- -- 53
2020-05-11 13:00:00 16.5 14 Oeste 30 Sudoeste 0 -- -- 55
2020-05-11 12:00:00 15 17 Sudoeste 29 Sudoeste 0 -- -- 65
2020-05-11 11:00:00 13.3 20 Sudoeste 37 Sudoeste 0 -- -- 72
2020-05-11 10:00:00 12.4 22 Sudoeste 33 Sudoeste 0 -- -- 80
2020-05-11 09:00:00 10.5 15 Sudoeste 22 Sudoeste 0 -- -- 89
2020-05-11 08:00:00 9.6 12 Sudoeste 20 Sudoeste 0 -- -- 93
2020-05-11 07:00:00 8.8 13 Sudoeste 23 Sudoeste 0 -- -- 92
2020-05-11 06:00:00 8.1 11 Sudoeste 18 Sudoeste 0 -- -- 92
2020-05-11 05:00:00 7.2 9 Sudoeste 14 Sudoeste 0 -- -- 92
2020-05-11 04:00:00 7.7 10 Sudoeste 21 Sudoeste 0 -- -- 92
2020-05-11 03:00:00 8.4 10 Sudoeste 19 Sudoeste 0 -- -- 91
2020-05-11 02:00:00 8.6 14 Sudoeste 23 Sudoeste 0 -- -- 91
2020-05-11 01:00:00 9.7 10 Oeste 27 Sudoeste 0 -- -- 86
2020-05-11 00:00:00 10.6 19 Sudoeste 28 Sudoeste 0 -- -- 84
2020-05-10 23:00:00 10.8 17 Sudoeste 23 Sudoeste 0 -- -- 77
2020-05-10 22:00:00 12.6 10 Oeste 22 Oeste 0 -- -- 66
2020-05-10 21:00:00 15.3 14 Oeste 31 Oeste 0 -- -- 51
2020-05-10 20:00:00 16 13 Oeste 32 Oeste 0 -- -- 47
2020-05-10 19:00:00 17.1 17 Oeste 30 Oeste 0 -- -- 44
2020-05-10 18:00:00 16.9 18 Oeste 30 Sudoeste 0 -- -- 45
2020-05-10 17:00:00 16.6 10 Oeste 23 Noroeste 0 -- -- 48
2020-05-10 16:00:00 15.8 9 Oeste 23 Oeste 0 -- -- 48
2020-05-10 15:00:00 14.5 11 Noroeste 26 Oeste 0 -- -- 53
2020-05-10 14:00:00 14.4 11 Noroeste 27 Oeste 0 -- -- 56
2020-05-10 13:00:00 13 12 Oeste 27 Oeste 0 -- -- 62
2020-05-10 12:00:00 11.8 9 Oeste 22 Oeste 0 -- -- 73
2020-05-10 11:00:00 11.3 13 Oeste 25 Oeste 0 -- -- 79
2020-05-10 10:00:00 9.5 13 Oeste 20 Sudoeste 0 -- -- 88
2020-05-10 09:00:00 8.2 10 Sudoeste 14 Sudoeste 0 -- -- 96
2020-05-10 08:00:00 7.4 9 Sudoeste 17 Oeste 0 -- -- 96
2020-05-10 07:00:00 7.8 7 Oeste 18 Oeste 0 -- -- 95
2020-05-10 06:00:00 8.4 10 Oeste 21 Oeste 0 -- -- 94
2020-05-10 05:00:00 9 9 Oeste 18 Oeste 0 -- -- 95
2020-05-10 04:00:00 8.9 6 Oeste 19 Oeste 0.6 -- -- 94
2020-05-10 03:00:00 9.5 9 Oeste 19 Sudoeste 1.2 -- -- 94
2020-05-10 02:00:00 10.5 8 Sudoeste 19 Sudoeste 4 -- -- 93
2020-05-10 01:00:00 11.2 9 Oeste 14 Oeste 1.6 -- -- 89
2020-05-10 00:00:00 12.5 4 Sur 18 Oeste 0.2 -- -- 80
2020-05-09 23:00:00 12.9 9 Oeste 18 Oeste 0 -- -- 73
2020-05-09 22:00:00 13.8 14 Oeste 22 Oeste 0 -- -- 73
2020-05-09 21:00:00 14.5 13 Sur 37 Sur 0.2 -- -- 79
2020-05-09 20:00:00 17.8 12 Oeste 24 Oeste 0 -- -- 57
2020-05-09 19:00:00 19.9 11 Oeste 25 Sudoeste 0 -- -- 49
2020-05-09 18:00:00 20.1 11 Oeste 23 Oeste 0 -- -- 49
2020-05-09 17:00:00 19.8 16 Oeste 31 Oeste 0 -- -- 51
2020-05-09 16:00:00 19.1 15 Oeste 25 Oeste 0 -- -- 57
2020-05-09 15:00:00 19.3 11 Oeste 23 Sudoeste 0 -- -- 57
2020-05-09 14:00:00 18.5 8 Noroeste 19 Sudoeste 0 -- -- 62
2020-05-09 13:00:00 17.8 12 Oeste 19 Oeste 0 -- -- 62
2020-05-09 12:00:00 16.9 11 Oeste 21 Oeste 0 -- -- 66
2020-05-09 11:00:00 15.8 16 Oeste 27 Oeste 0 -- -- 72
2020-05-09 10:00:00 15.8 14 Oeste 30 Oeste 0 -- -- 72
2020-05-09 09:00:00 13 9 Oeste 15 Oeste 0 -- -- 89
2020-05-09 08:00:00 11.2 6 Sudoeste 13 Sudoeste 0 -- -- 92
2020-05-09 07:00:00 11.5 9 Sudoeste 17 Sudoeste 0 -- -- 90
2020-05-09 06:00:00 12.2 12 Sudoeste 15 Sudoeste 0 -- -- 86
2020-05-09 05:00:00 13 11 Sudoeste 16 Sudoeste 0 -- -- 83
2020-05-09 04:00:00 12.8 11 Sur 17 Sur 0 -- -- 84
2020-05-09 03:00:00 13 12 Sudoeste 15 Sudoeste 0 -- -- 83
2020-05-09 02:00:00 13.5 9 Sudoeste 14 Oeste 0 -- -- 81
2020-05-09 01:00:00 15.3 8 Oeste 15 Oeste 0 -- -- 76
2020-05-09 00:00:00 16.6 9 Sudoeste 12 Sudoeste 0 -- -- 71
2020-05-08 23:00:00 18.6 5 Oeste 12 Oeste 0 -- -- 67
2020-05-08 22:00:00 18.5 8 Sur 10 Sur 0 -- -- 71
2020-05-08 21:00:00 19.6 4 Este 17 Sudeste 0 -- -- 68
2020-05-08 20:00:00 19.8 6 Norte 27 Noroeste 0 -- -- 65
2020-05-08 19:00:00 20.5 13 Noroeste 28 Noroeste 0 -- -- 66
2020-05-08 18:00:00 22.5 12 Oeste 34 Sur 0 -- -- 57
2020-05-08 17:00:00 23 18 Sudoeste 29 Sudoeste 0 -- -- 50
2020-05-08 16:00:00 23.9 5 Oeste 21 Oeste 0 -- -- 44
2020-05-08 15:00:00 25.1 6 Sur 33 Oeste 0 -- -- 42
2020-05-08 14:00:00 23.4 9 Sudoeste 23 Sudoeste 0 -- -- 48
2020-05-08 13:00:00 22.2 9 Este 21 Este 0 -- -- 54
2020-05-08 12:00:00 20.7 10 Este 23 Este 0 -- -- 62
2020-05-08 11:00:00 19 10 Este 20 Este 0 -- -- 65
2020-05-08 10:00:00 17.1 7 Este 15 Sudeste 0 -- -- 68
2020-05-08 09:00:00 14.7 12 Sudeste 21 Sudeste 0 -- -- 75
2020-05-08 08:00:00 14.1 8 Sudeste 18 Sudeste 0 -- -- 75
2020-05-08 07:00:00 14.8 13 Sudeste 17 Sudeste 0 -- -- 72
2020-05-08 06:00:00 15.9 4 Este 19 Sur 0 -- -- 66
2020-05-08 05:00:00 16.1 16 Sudeste 27 Sudeste 0 -- -- 66
2020-05-08 04:00:00 17.4 12 Sudeste 39 Sudeste 0 -- -- 58
2020-05-08 03:00:00 17.9 34 Sudeste 49 Sur 0 -- -- 56
2020-05-08 02:00:00 18.2 24 Sudeste 36 Sudeste 0 -- -- 59
2020-05-08 01:00:00 18.6 16 Sudeste 30 Sudeste 0 -- -- 60
2020-05-08 00:00:00 18.4 21 Sudoeste 29 Sudoeste 0 -- -- 62
2020-05-07 23:00:00 19.3 12 Sur 18 Sur 0 -- -- 59
2020-05-07 22:00:00 20.6 12 Sudeste 19 Sur 0 -- -- 57
2020-05-07 21:00:00 22.4 14 Sur 31 Sudeste 0 -- -- 51
2020-05-07 20:00:00 23.5 23 Sudeste 33 Sur 0 -- -- 45
2020-05-07 19:00:00 24.2 26 Sudeste 41 Sudeste 0 -- -- 43
2020-05-07 18:00:00 25.2 26 Sur 41 Sur 0 -- -- 43
2020-05-07 17:00:00 25.4 24 Sur 39 Sur 0 -- -- 43
2020-05-07 16:00:00 25.9 30 Sur 41 Sur 0 -- -- 40
2020-05-07 15:00:00 26.5 22 Sur 36 Sur 0 -- -- 40
2020-05-07 14:00:00 24.4 10 Este 20 Este 0 -- -- 45
2020-05-07 13:00:00 22.2 9 Nordeste 18 Nordeste 0 -- -- 45
2020-05-07 12:00:00 19.3 6 Nordeste 13 Este 0 -- -- 56
2020-05-07 11:00:00 15.6 5 Este 11 Este 0 -- -- 69
2020-05-07 10:00:00 12.7 9 Este 15 Este 0 -- -- 77
2020-05-07 09:00:00 11.2 10 Este 14 Este 0 -- -- 81
2020-05-07 08:00:00 9.3 3 Sudeste 12 Sudeste 0 -- -- 85
2020-05-07 07:00:00 9.9 5 Este 9 Nordeste 0 -- -- 82
2020-05-07 06:00:00 10.5 5 Nordeste 10 Este 0 -- -- 81
2020-05-07 05:00:00 11.3 9 Este 12 Este 0 -- -- 78
2020-05-07 04:00:00 13.1 6 Este 10 Este 0 -- -- 71
2020-05-07 03:00:00 13.5 10 Este 12 Este 0 -- -- 69
2020-05-07 02:00:00 14.4 10 Este 12 Este 0 -- -- 65
2020-05-07 01:00:00 15.5 6 Este 8 Nordeste 0 -- -- 60
2020-05-07 00:00:00 16.3 5 Norte 8 Nordeste 0 -- -- 57
2020-05-06 23:00:00 16.8 4 Norte 12 Norte 0 -- -- 59
2020-05-06 22:00:00 17.8 5 Norte 14 Norte 0 -- -- 56
2020-05-06 21:00:00 21.2 6 Norte 15 Noroeste 0 -- -- 39
2020-05-06 20:00:00 22.7 8 Noroeste 18 Noroeste 0 -- -- 37
2020-05-06 19:00:00 23.7 6 Noroeste 14 Noroeste 0 -- -- 37
2020-05-06 18:00:00 23.7 5 Oeste 18 Noroeste 0 -- -- 34
2020-05-06 17:00:00 23.7 5 Sudeste 17 Norte 0 -- -- 36
2020-05-06 16:00:00 23 7 Nordeste 16 Oeste 0 -- -- 38
2020-05-06 15:00:00 21.5 5 Sudoeste 18 Sur 0 -- -- 41
2020-05-06 14:00:00 20.7 8 Este 16 Nordeste 0 -- -- 43
2020-05-06 13:00:00 19.5 7 Norte 14 Nordeste 0 -- -- 49
2020-05-06 12:00:00 17.1 5 Norte 11 Nordeste 0 -- -- 60
2020-05-06 11:00:00 14.8 6 Este 10 Este 0 -- -- 67
2020-05-06 10:00:00 12.2 2 Sudoeste 6 Sudoeste 0 -- -- 77
2020-05-06 09:00:00 10.6 5 Sudoeste 8 Sur 0 -- -- 81
2020-05-06 08:00:00 8.4 6 Sudoeste 8 Sudoeste 0 -- -- 86
2020-05-06 07:00:00 8.3 8 Sudoeste 16 Sudoeste 0 -- -- 86
2020-05-06 06:00:00 8.2 12 Sudoeste 15 Sudoeste 0 -- -- 87
2020-05-06 05:00:00 8.5 12 Sudoeste 15 Sudoeste 0 -- -- 85
2020-05-06 04:00:00 9.5 10 Sudoeste 17 Sudoeste 0 -- -- 81
2020-05-06 03:00:00 9.9 10 Sudoeste 16 Sur 0 -- -- 79
2020-05-06 02:00:00 10.5 14 Sur 15 Sur 0 -- -- 76
2020-05-06 01:00:00 11.7 11 Sur 15 Sudeste 0 -- -- 70
2020-05-06 00:00:00 14.3 4 Oeste 9 Oeste 0 -- -- 59
2020-05-05 23:00:00 15.5 3 Noroeste 9 Norte 0 -- -- 56
2020-05-05 22:00:00 16.8 5 Noroeste 14 Noroeste 0 -- -- 49
2020-05-05 21:00:00 19.3 6 Noroeste 13 Noroeste 0 -- -- 42
2020-05-05 20:00:00 20.8 9 Oeste 20 Oeste 0 -- -- 34
2020-05-05 19:00:00 21 11 Oeste 21 Oeste 0 -- -- 34
2020-05-05 18:00:00 21.2 9 Oeste 24 Oeste 0 -- -- 34
2020-05-05 17:00:00 20.9 13 Oeste 23 Sudoeste 0 -- -- 33
2020-05-05 16:00:00 20.3 12 Oeste 24 Oeste 0 -- -- 38
2020-05-05 15:00:00 19.5 7 Oeste 18 Sudoeste 0 -- -- 45
2020-05-05 14:00:00 18.8 14 Sudoeste 23 Sudoeste 0 -- -- 42
2020-05-05 13:00:00 17.3 5 Oeste 15 Oeste 0 -- -- 53
2020-05-05 12:00:00 -- -- -- -- -- -- -- -- --
2020-05-05 11:00:00 -- -- -- -- -- -- -- -- --
2020-05-05 10:00:00 -- -- -- -- -- -- -- -- --
2020-05-05 09:00:00 -- -- -- -- -- -- -- -- --
2020-05-05 08:00:00 -- -- -- -- -- -- -- -- --
2020-05-05 07:00:00 -- -- -- -- -- -- -- -- --
2020-05-05 06:00:00 -- -- -- -- -- -- -- -- --
2020-05-05 05:00:00 -- -- -- -- -- -- -- -- --
2020-05-05 04:00:00 -- -- -- -- -- -- -- -- --
2020-05-05 03:00:00 -- -- -- -- -- -- -- -- --
2020-05-05 02:00:00 -- -- -- -- -- -- -- -- --
2020-05-05 01:00:00 -- -- -- -- -- -- -- -- --
2020-05-05 00:00:00 -- -- -- -- -- -- -- -- --
2020-05-04 23:00:00 -- -- -- -- -- -- -- -- --
2020-05-04 22:00:00 -- -- -- -- -- -- -- -- --
2020-05-04 21:00:00 -- -- -- -- -- -- -- -- --
2020-05-04 20:00:00 -- -- -- -- -- -- -- -- --
2020-05-04 19:00:00 -- -- -- -- -- -- -- -- --
2020-05-04 18:00:00 -- -- -- -- -- -- -- -- --
2020-05-04 17:00:00 -- -- -- -- -- -- -- -- --
2020-05-04 16:00:00 -- -- -- -- -- -- -- -- --
2020-05-04 15:00:00 -- -- -- -- -- -- -- -- --
2020-05-04 14:00:00 -- -- -- -- -- -- -- -- --
2020-05-04 13:00:00 -- -- -- -- -- -- -- -- --
2020-05-04 12:00:00 -- -- -- -- -- -- -- -- --
2020-05-04 11:00:00 21.4 18 Sur 26 Sur 0 -- -- 55
2020-05-04 10:00:00 15.9 12 Sudeste 19 Sudeste 0 -- -- 72
2020-05-04 09:00:00 13.9 12 Este 19 Este 0 -- -- 75
2020-05-04 08:00:00 11.7 14 Este 30 Este 0 -- -- 81
2020-05-04 07:00:00 13.8 22 Sudeste 32 Sudeste 0 -- -- 70
2020-05-04 06:00:00 13.6 24 Sudeste 29 Sudeste 0 -- -- 74
2020-05-04 05:00:00 12.1 19 Sudeste 23 Sudeste 0 -- -- 82
2020-05-04 04:00:00 13 14 Este 19 Sudeste 0 -- -- 79
2020-05-04 03:00:00 14.4 12 Sudeste 22 Sur 0 -- -- 75
2020-05-04 02:00:00 16.3 18 Sur 22 Sur 0 -- -- 62
2020-05-04 01:00:00 16.4 12 Sur 19 Sur 0 -- -- 66
2020-05-04 00:00:00 16.7 7 Sudoeste 15 Sudoeste 0 -- -- 66
2020-05-03 23:00:00 17.9 9 Sudoeste 13 Sur 0 -- -- 64
2020-05-03 22:00:00 21.5 5 Sur 16 Sur 0 -- -- 50
2020-05-03 21:00:00 24.3 5 Sudeste 13 Sudeste 0 -- -- 47
2020-05-03 20:00:00 26.9 6 Sur 16 Norte 0 -- -- 39
2020-05-03 19:00:00 27.4 8 Noroeste 14 Noroeste 0 -- -- 35
2020-05-03 18:00:00 27.3 6 Noroeste 17 Este 0 -- -- 32
2020-05-03 17:00:00 27.1 6 Nordeste 14 Nordeste 0 -- -- 32
2020-05-03 16:00:00 26.2 7 Norte 13 Nordeste 0 -- -- 35
2020-05-03 15:00:00 25.3 6 Noroeste 13 Oeste 0 -- -- 35
2020-05-03 14:00:00 24.3 6 Oeste 15 Sudoeste 0 -- -- 37
2020-05-03 13:00:00 22.8 4 Nordeste 14 Este 0 -- -- 49
2020-05-03 12:00:00 20.2 8 Sudeste 13 Este 0 -- -- 58
2020-05-03 11:00:00 17.7 4 Este 9 Este 0 -- -- 67
2020-05-03 10:00:00 13.4 6 Este 11 Sudeste 0 -- -- 81
2020-05-03 09:00:00 9.9 8 Sudeste 12 Este 0 -- -- 91
2020-05-03 08:00:00 8.2 7 Este 15 Sudeste 0 -- -- 94
2020-05-03 07:00:00 8.2 9 Este 15 Sur 0 -- -- 92
2020-05-03 06:00:00 10 11 Sur 17 Sur 0 -- -- 88
2020-05-03 05:00:00 10.5 9 Sur 11 Sur 0 -- -- 87
2020-05-03 04:00:00 12 9 Sudeste 15 Sur 0 -- -- 85
2020-05-03 03:00:00 12.7 14 Sudeste 16 Sur 0 -- -- 83
2020-05-03 02:00:00 12.8 14 Sur 19 Sur 0 -- -- 78
2020-05-03 01:00:00 13.8 6 Sur 9 Sudeste 0 -- -- 72
2020-05-03 00:00:00 15.8 0 Calma 4 Norte 0 -- -- 64
2020-05-02 23:00:00 17.2 3 Norte 9 Norte 0 -- -- 60
2020-05-02 22:00:00 18.3 5 Norte 9 Norte 0 -- -- 58
2020-05-02 21:00:00 20.2 4 Noroeste 18 Oeste 0 -- -- 52
2020-05-02 20:00:00 22.3 8 Noroeste 23 Oeste 0 -- -- 50
2020-05-02 19:00:00 23.1 11 Oeste 27 Sudoeste 0 -- -- 46
2020-05-02 18:00:00 23.3 8 Oeste 23 Noroeste 0 -- -- 47
2020-05-02 17:00:00 22.5 13 Oeste 30 Oeste 0 -- -- 51
2020-05-02 16:00:00 21.5 14 Oeste 26 Oeste 0 -- -- 49
2020-05-02 15:00:00 20.1 13 Oeste 25 Oeste 0 -- -- 53
2020-05-02 14:00:00 18.6 10 Oeste 20 Oeste 0 -- -- 64
2020-05-02 13:00:00 16.6 7 Oeste 20 Oeste 0 -- -- 69
2020-05-02 12:00:00 15.5 12 Oeste 25 Sudoeste 0 -- -- 74
2020-05-02 11:00:00 14 9 Oeste 15 Oeste 0 -- -- 82
2020-05-02 10:00:00 13 7 Oeste 12 Sudoeste 0 -- -- 88
2020-05-02 09:00:00 12 5 Oeste 12 Sudoeste 0 -- -- 93
2020-05-02 08:00:00 11 6 Sudoeste 17 Sur 0 -- -- 96
2020-05-02 07:00:00 10 11 Sur 15 Sur 0 -- -- 96
2020-05-02 06:00:00 10.2 9 Sur 14 Sudoeste 0 -- -- 94
2020-05-02 05:00:00 10.3 6 Sudoeste 14 Sudoeste 0 -- -- 94
2020-05-02 04:00:00 10.8 10 Sudoeste 15 Sudoeste 0 -- -- 93
2020-05-02 03:00:00 11.3 11 Sudoeste 15 Oeste 0 -- -- 93
2020-05-02 02:00:00 12.2 11 Oeste 19 Oeste 0 -- -- 90
2020-05-02 01:00:00 12.6 13 Oeste 21 Sudoeste 0 -- -- 89
2020-05-02 00:00:00 13.5 11 Oeste 26 Oeste 0 -- -- 86
2020-05-01 23:00:00 14.1 14 Sudoeste 24 Sudoeste 0 -- -- 82
2020-05-01 22:00:00 15.4 11 Oeste 22 Oeste 0 -- -- 75
2020-05-01 21:00:00 17.3 13 Oeste 41 Oeste 0 -- -- 66
2020-05-01 20:00:00 19.5 22 Oeste 40 Oeste 0 -- -- 59
2020-05-01 19:00:00 19.8 22 Oeste 39 Oeste 0 -- -- 56
2020-05-01 18:00:00 19.9 20 Oeste 43 Sudoeste 0 -- -- 61
2020-05-01 17:00:00 19.5 26 Sudoeste 42 Oeste 0 -- -- 63
2020-05-01 16:00:00 19.7 30 Oeste 46 Oeste 0 -- -- 61
2020-05-01 15:00:00 18.8 24 Oeste 45 Sudoeste 0 -- -- 65
2020-05-01 14:00:00 17.9 25 Oeste 44 Oeste 0 -- -- 66
2020-05-01 13:00:00 16.7 26 Oeste 45 Oeste 0 -- -- 71
2020-05-01 12:00:00 15.9 25 Oeste 45 Oeste 0 -- -- 73
2020-05-01 11:00:00 15 24 Oeste 43 Oeste 0 -- -- 78
2020-05-01 10:00:00 13.5 22 Oeste 36 Sudoeste 0 -- -- 85
2020-05-01 09:00:00 11.7 21 Sudoeste 35 Sudoeste 0 -- -- 89
2020-05-01 08:00:00 11 22 Sudoeste 35 Sudoeste 0 -- -- 89
2020-05-01 07:00:00 11 20 Sudoeste 31 Sudoeste 0 -- -- 88
2020-05-01 06:00:00 11.1 21 Sudoeste 30 Sudoeste 0 -- -- 88
2020-05-01 05:00:00 10.7 19 Sudoeste 31 Sudoeste 0 -- -- 89
2020-05-01 04:00:00 10.9 24 Sudoeste 37 Sudoeste 0 -- -- 86
2020-05-01 03:00:00 11.5 23 Sudoeste 36 Sudoeste 0 -- -- 86
2020-05-01 02:00:00 11.6 23 Sudoeste 31 Sudoeste 0 -- -- 85
2020-05-01 01:00:00 11.7 16 Sudoeste 27 Sudoeste 0 -- -- 85
2020-05-01 00:00:00 12.1 20 Sudoeste 29 Sudoeste 0 -- -- 83
2020-04-30 23:00:00 12.3 7 Oeste 24 Sudoeste 0 -- -- 80
2020-04-30 22:00:00 12.6 12 Oeste 35 Sudoeste 0 -- -- 78
2020-04-30 21:00:00 13.1 18 Sudoeste 32 Sudoeste 0 -- -- 76
2020-04-30 20:00:00 13.5 21 Sudoeste 33 Sudoeste 0 -- -- 75
2020-04-30 19:00:00 13.7 21 Sudoeste 34 Sudoeste 0 -- -- 74
2020-04-30 18:00:00 14.5 24 Oeste 39 Sudoeste 0 -- -- 66
2020-04-30 17:00:00 14.5 22 Oeste 42 Oeste 0 -- -- 65
2020-04-30 16:00:00 14.7 22 Oeste 38 Oeste 0 -- -- 65
2020-04-30 15:00:00 14.1 22 Oeste 37 Oeste 0 -- -- 64
2020-04-30 14:00:00 14 22 Oeste 42 Oeste 0 -- -- 63
2020-04-30 13:00:00 12.9 31 Sudoeste 44 Oeste 0 -- -- 69
2020-04-30 12:00:00 12.2 25 Oeste 47 Oeste 0 -- -- 70
2020-04-30 11:00:00 11 24 Oeste 37 Oeste 0 -- -- 75
2020-04-30 10:00:00 10.2 23 Oeste 38 Oeste 0 -- -- 77
2020-04-30 09:00:00 9.3 18 Sudoeste 34 Oeste 0 -- -- 84
2020-04-30 08:00:00 8.8 23 Sudoeste 37 Sudoeste 0 -- -- 82
2020-04-30 07:00:00 8.4 23 Sudoeste 31 Sudoeste 0 -- -- 84
2020-04-30 06:00:00 8 16 Sudoeste 23 Sudoeste 0 -- -- 85
2020-04-30 05:00:00 8.3 14 Sudoeste 20 Sudoeste 0 -- -- 85
2020-04-30 04:00:00 8.5 10 Sudoeste 23 Sudoeste 0 -- -- 84
2020-04-30 03:00:00 9 14 Sudoeste 24 Sudoeste 0 -- -- 79
2020-04-30 02:00:00 9.5 14 Oeste 25 Oeste 0 -- -- 76
2020-04-30 01:00:00 9.6 13 Oeste 27 Oeste 0 -- -- 78
2020-04-30 00:00:00 10.7 14 Oeste 34 Sudoeste 0 -- -- 73
2020-04-29 23:00:00 11.6 17 Oeste 34 Sudoeste 0 -- -- 76
2020-04-29 22:00:00 11.8 17 Oeste 33 Sudoeste 0 -- -- 80
2020-04-29 21:00:00 12.3 22 Sudoeste 42 Sudoeste 0 -- -- 80
2020-04-29 20:00:00 13.5 29 Sudoeste 53 Sudoeste 0 -- -- 72
2020-04-29 19:00:00 13.9 32 Sudoeste 48 Sudoeste 0 -- -- 69
2020-04-29 18:00:00 13.6 31 Sudoeste 53 Sudoeste 0 -- -- 68
2020-04-29 17:00:00 14.9 30 Oeste 58 Sudoeste 0 -- -- 65
2020-04-29 16:00:00 16.2 28 Oeste 49 Sudoeste 0 -- -- 60
2020-04-29 15:00:00 15.9 26 Sudoeste 49 Sudoeste 0 -- -- 56
2020-04-29 14:00:00 16.2 28 Sudoeste 41 Sudoeste 0 -- -- 52
2020-04-29 13:00:00 14.5 25 Sudoeste 44 Sudoeste 0 -- -- 56
2020-04-29 12:00:00 13.2 24 Sudoeste 35 Sudoeste 0 -- -- 60
2020-04-29 11:00:00 11.2 21 Sudoeste 28 Sudoeste 0 -- -- 65
2020-04-29 10:00:00 10 13 Sudoeste 19 Sudoeste 0 -- -- 79
2020-04-29 09:00:00 7.7 11 Sudoeste 18 Sur 0 -- -- 90
2020-04-29 08:00:00 5.6 13 Sur 19 Sur 0 -- -- 93
2020-04-29 07:00:00 5.6 12 Sudoeste 17 Sudoeste 0 -- -- 93
2020-04-29 06:00:00 6.3 12 Sudoeste 21 Sudoeste 0 -- -- 93
2020-04-29 05:00:00 6.9 14 Sudoeste 20 Sudoeste 0 -- -- 93
2020-04-29 04:00:00 6.3 13 Sudoeste 17 Sudoeste 0 -- -- 92
2020-04-29 03:00:00 7.1 11 Sudoeste 21 Sudoeste 0 -- -- 90
2020-04-29 02:00:00 7.3 13 Sudoeste 21 Sudoeste 0 -- -- 88
2020-04-29 01:00:00 8.1 13 Oeste 21 Oeste 0 -- -- 83
2020-04-29 00:00:00 8.9 8 Oeste 15 Oeste 0 -- -- 80
2020-04-28 23:00:00 9.1 9 Sudoeste 17 Oeste 0 -- -- 78
2020-04-28 22:00:00 9.8 9 Oeste 27 Noroeste 0 -- -- 71
2020-04-28 21:00:00 12.3 15 Oeste 26 Oeste 0 -- -- 61
2020-04-28 20:00:00 12.8 14 Oeste 39 Oeste 0 -- -- 60
2020-04-28 19:00:00 13.2 15 Oeste 37 Oeste 0 -- -- 57
2020-04-28 18:00:00 13.8 17 Oeste 36 Oeste 0 -- -- 54
2020-04-28 17:00:00 13.2 16 Oeste 34 Oeste 0 -- -- 59
2020-04-28 16:00:00 13.1 20 Oeste 36 Sudoeste 0 -- -- 66
2020-04-28 15:00:00 11.3 16 Sudoeste 36 Oeste 0 -- -- 72
2020-04-28 14:00:00 11.9 18 Oeste 34 Oeste 0 -- -- 65
2020-04-28 13:00:00 11.6 17 Oeste 27 Oeste 0 -- -- 70
2020-04-28 12:00:00 10.3 14 Oeste 26 Oeste 0 -- -- 76
2020-04-28 11:00:00 9.7 19 Sudoeste 28 Sudoeste 0 -- -- 78
2020-04-28 10:00:00 8.1 14 Sudoeste 22 Sudoeste 0 -- -- 90
2020-04-28 09:00:00 7.1 10 Oeste 20 Oeste 0 -- -- 92
2020-04-28 08:00:00 7 10 Oeste 21 Oeste 0 -- -- 94
2020-04-28 07:00:00 7.3 12 Oeste 26 Oeste 0 -- -- 93
2020-04-28 06:00:00 7.6 10 Sudoeste 18 Sudoeste 0 -- -- 95
2020-04-28 05:00:00 7.9 13 Sudoeste 21 Sudoeste 0 -- -- 95
2020-04-28 04:00:00 7.4 12 Sudoeste 16 Sudoeste 0 -- -- 96
2020-04-28 03:00:00 7.6 12 Sudoeste 18 Sudoeste 0 -- -- 94
2020-04-28 02:00:00 8.5 10 Sudoeste 20 Sudoeste 0 -- -- 93
2020-04-28 01:00:00 8.4 10 Sudoeste 14 Sudoeste 0 -- -- 94
2020-04-28 00:00:00 8.3 10 Sudoeste 19 Sudoeste 1.4 -- -- 92